Terminal Aerodrome Forecast
Issued by NWS

Home | Current Version | Previous Version | Text Only | Print | Product List | Glossary On
Versions: 1 2 3 4 5 6 7 8 9 10 11 12 13 14 15
000
FTUS43 KIND 281120
TAFHUF
TAF
KHUF 281120Z 2812/2912 35009KT P6SM OVC008
     FM281400 36007KT P6SM OVC020
     FM290400 03007KT P6SM BKN025
     FM290600 04007KT P6SM BKN015
     FM290900 06007KT P6SM BKN020=

USA.gov is the U.S. government's official web portal to all federal, state and local government web resources and services.